Time;durP1;ratioP1;P1;durP2;ratioP2;P2;SDS_P1;SDS_P2;PMS_P1;PMS_P2;Temp;Humidity;BMP_temperature;BMP_pressure;BME280_temperature;BME280_humidity;BME280_pressure;Samples;Min_cycle;Max_cycle;Signal;HPM_P1;HPM_P2
2022/01/19 00:00:06;;;;;;;8.38;6.22;;;;;;;1.78;100.00;102444.44;838687;23;896;-57
2022/01/19 00:00:30;;;;;;;8.70;6.40;;;;;;;1.87;100.00;102449.28;838131;23;655;-53
2022/01/19 00:00:51;;;;;;;8.87;6.37;;;;;;;1.86;100.00;102443.22;839568;23;874;-53
2022/01/19 00:01:12;;;;;;;9.73;6.80;;;;;;;1.79;100.00;102440.19;838165;23;4398;-53
2022/01/19 00:01:32;;;;;;;9.38;6.68;;;;;;;1.76;100.00;102445.16;837695;23;797;-52
2022/01/19 00:01:53;;;;;;;8.82;6.05;;;;;;;1.75;100.00;102446.84;839316;23;844;-52
2022/01/19 00:02:13;;;;;;;9.00;6.17;;;;;;;1.83;100.00;102437.88;839222;23;904;-53
2022/01/19 00:02:33;;;;;;;8.10;6.32;;;;;;;1.90;100.00;102444.31;839014;23;810;-53
2022/01/19 00:02:54;;;;;;;8.20;6.60;;;;;;;1.90;100.00;102439.13;839674;23;935;-54
2022/01/19 00:03:15;;;;;;;8.97;6.80;;;;;;;1.85;100.00;102445.72;839070;23;912;-54
2022/01/19 00:03:35;;;;;;;9.82;6.40;;;;;;;1.83;100.00;102447.31;837122;23;938;-52
2022/01/19 00:03:56;;;;;;;9.03;6.30;;;;;;;1.84;100.00;102439.66;838226;23;912;-54
2022/01/19 00:04:16;;;;;;;9.18;6.72;;;;;;;1.86;100.00;102442.34;836363;23;4266;-54
2022/01/19 00:04:37;;;;;;;8.90;6.70;;;;;;;1.93;100.00;102444.47;837856;23;734;-53
2022/01/19 00:04:57;;;;;;;9.27;6.70;;;;;;;1.89;100.00;102441.63;838319;23;899;-53
2022/01/19 00:05:17;;;;;;;9.17;6.33;;;;;;;1.89;100.00;102442.50;840075;23;840;-52
2022/01/19 00:05:38;;;;;;;9.82;6.65;;;;;;;1.88;100.00;102443.31;838144;23;974;-53
2022/01/19 00:05:59;;;;;;;9.07;6.57;;;;;;;1.82;100.00;102437.78;839122;23;1005;-53
2022/01/19 00:06:19;;;;;;;9.77;6.67;;;;;;;1.82;100.00;102456.72;838051;23;729;-53
2022/01/19 00:06:40;;;;;;;10.02;6.70;;;;;;;1.80;100.00;102448.03;838534;23;828;-52
2022/01/19 00:07:00;;;;;;;8.43;6.43;;;;;;;1.86;100.00;102445.78;838698;23;911;-55
2022/01/19 00:07:21;;;;;;;8.18;6.38;;;;;;;1.83;100.00;102447.31;836367;23;4204;-53
2022/01/19 00:07:41;;;;;;;9.37;6.40;;;;;;;1.85;100.00;102440.56;838701;23;852;-52
2022/01/19 00:08:02;;;;;;;9.52;6.53;;;;;;;1.85;100.00;102450.88;838796;23;924;-53
2022/01/19 00:08:22;;;;;;;9.30;6.97;;;;;;;1.81;100.00;102449.78;838194;23;1057;-54
2022/01/19 00:08:43;;;;;;;8.73;6.90;;;;;;;1.81;100.00;102451.47;838560;23;725;-56
2022/01/19 00:09:03;;;;;;;9.90;6.68;;;;;;;1.83;100.00;102449.91;839319;23;1014;-52
2022/01/19 00:09:26;;;;;;;10.67;6.70;;;;;;;1.77;100.00;102452.97;838167;23;919;-53
2022/01/19 00:09:46;;;;;;;9.65;6.70;;;;;;;1.78;100.00;102448.72;838682;23;774;-52
2022/01/19 00:10:11;;;;;;;9.27;6.80;;;;;;;1.72;100.00;102445.75;836936;23;4386;-55
2022/01/19 00:10:31;;;;;;;9.00;6.80;;;;;;;1.71;100.00;102444.88;833950;23;1601;-53
2022/01/19 00:10:52;;;;;;;8.82;7.00;;;;;;;1.74;100.00;102449.34;833593;23;773;-54
2022/01/19 00:11:13;;;;;;;9.88;7.18;;;;;;;1.76;100.00;102452.88;834330;23;804;-52
2022/01/19 00:11:34;;;;;;;10.32;7.18;;;;;;;1.72;100.00;102445.75;834378;23;844;-56
2022/01/19 00:11:54;;;;;;;8.97;6.80;;;;;;;1.78;100.00;102449.59;832047;23;879;-54
2022/01/19 00:12:14;;;;;;;8.75;6.60;;;;;;;1.81;100.00;102447.19;835052;23;821;-52
2022/01/19 00:12:35;;;;;;;9.20;6.60;;;;;;;1.84;100.00;102447.41;838419;23;789;-52
2022/01/19 00:12:57;;;;;;;9.60;7.28;;;;;;;1.79;100.00;102453.09;837972;23;833;-52
2022/01/19 00:13:18;;;;;;;9.00;6.95;;;;;;;1.72;100.00;102445.75;835963;23;4476;-52
2022/01/19 00:13:39;;;;;;;8.45;6.72;;;;;;;1.72;100.00;102448.34;837620;23;934;-52
2022/01/19 00:13:59;;;;;;;8.77;7.00;;;;;;;1.69;100.00;102444.78;837811;23;836;-54
2022/01/19 00:14:19;;;;;;;9.33;7.07;;;;;;;1.67;100.00;102448.94;837354;23;1002;-53
2022/01/19 00:14:40;;;;;;;10.93;7.40;;;;;;;1.64;100.00;102442.75;837142;23;927;-52
2022/01/19 00:15:00;;;;;;;9.03;6.97;;;;;;;1.68;100.00;102445.59;837588;23;1045;-53
2022/01/19 00:15:22;;;;;;;9.68;6.93;;;;;;;1.74;100.00;102444.19;837648;23;700;-52
2022/01/19 00:15:42;;;;;;;9.57;6.70;;;;;;;1.75;100.00;102444.28;838771;23;903;-54
2022/01/19 00:16:03;;;;;;;9.82;6.90;;;;;;;1.71;100.00;102442.31;837162;23;800;-53
2022/01/19 00:16:25;;;;;;;8.98;6.78;;;;;;;1.69;100.00;102436.19;830276;23;4476;-53
2022/01/19 00:16:45;;;;;;;9.25;6.82;;;;;;;1.74;100.00;102439.03;837475;23;962;-53
2022/01/19 00:17:05;;;;;;;8.90;6.75;;;;;;;1.70;100.00;102437.94;838021;23;959;-53
2022/01/19 00:17:26;;;;;;;9.27;6.60;;;;;;;1.64;100.00;102435.88;836665;23;1260;-53
2022/01/19 00:17:46;;;;;;;8.85;6.80;;;;;;;1.71;100.00;102432.00;837044;23;1944;-52
2022/01/19 00:18:07;;;;;;;9.33;6.80;;;;;;;1.70;100.00;102433.69;836980;23;856;-53
2022/01/19 00:18:27;;;;;;;9.10;6.60;;;;;;;1.66;100.00;102442.03;836591;23;903;-53
2022/01/19 00:18:48;;;;;;;9.38;6.50;;;;;;;1.67;100.00;102436.06;833279;23;741;-53
2022/01/19 00:19:08;;;;;;;9.13;6.53;;;;;;;1.65;100.00;102432.53;833634;23;4607;-55
2022/01/19 00:19:29;;;;;;;8.93;6.80;;;;;;;1.72;100.00;102432.88;832398;23;977;-53
2022/01/19 00:19:49;;;;;;;8.37;6.67;;;;;;;1.79;100.00;102435.03;833782;23;840;-53
2022/01/19 00:20:10;;;;;;;10.47;7.07;;;;;;;1.70;100.00;102436.28;832447;23;935;-53
2022/01/19 00:20:32;;;;;;;9.60;6.93;;;;;;;1.68;100.00;102437.84;831839;23;765;-60
2022/01/19 00:20:54;;;;;;;8.68;6.63;;;;;;;1.67;100.00;102436.06;837869;23;876;-53
2022/01/19 00:21:15;;;;;;;8.80;6.82;;;;;;;1.71;100.00;102432.00;833148;23;788;-54
2022/01/19 00:21:35;;;;;;;9.40;6.90;;;;;;;1.75;100.00;102433.06;834313;23;777;-53
2022/01/19 00:21:56;;;;;;;9.17;6.87;;;;;;;1.66;100.00;102429.16;832826;23;797;-54
2022/01/19 00:22:16;;;;;;;8.80;6.97;;;;;;;1.62;100.00;102429.75;832344;23;4646;-53
2022/01/19 00:22:37;;;;;;;9.87;7.30;;;;;;;1.66;100.00;102429.16;833274;23;750;-53
2022/01/19 00:23:01;;;;;;;10.95;7.22;;;;;;;1.72;100.00;102417.41;832684;23;729;-52
2022/01/19 00:23:22;;;;;;;8.90;6.90;;;;;;;1.73;100.00;102425.25;831939;23;789;-55
2022/01/19 00:23:43;;;;;;;9.00;7.20;;;;;;;1.69;100.00;102421.59;832440;23;817;-53
2022/01/19 00:24:03;;;;;;;8.60;7.00;;;;;;;1.63;100.00;102418.63;833129;23;926;-54
2022/01/19 00:24:24;;;;;;;10.40;7.22;;;;;;;1.66;100.00;102416.25;832397;23;879;-57
2022/01/19 00:24:44;;;;;;;9.33;7.07;;;;;;;1.65;100.00;102411.91;833599;23;690;-53
2022/01/19 00:25:07;;;;;;;10.00;7.07;;;;;;;1.65;100.00;102417.06;828614;23;4501;-54
2022/01/19 00:25:28;;;;;;;9.73;6.90;;;;;;;1.68;100.00;102417.22;831726;23;1000;-54
2022/01/19 00:25:50;;;;;;;10.30;7.25;;;;;;;1.64;100.00;102404.06;827828;23;942;-52
2022/01/19 00:26:11;;;;;;;10.65;7.13;;;;;;;1.68;100.00;102401.75;829236;23;915;-53
2022/01/19 00:26:31;;;;;;;8.67;6.97;;;;;;;1.72;100.00;102401.94;827626;23;718;-53
2022/01/19 00:26:51;;;;;;;8.73;6.90;;;;;;;1.72;100.00;102396.78;829495;23;1236;-53
2022/01/19 00:27:12;;;;;;;8.83;6.77;;;;;;;1.74;100.00;102396.06;832336;23;1184;-53
2022/01/19 00:27:32;;;;;;;10.00;7.10;;;;;;;1.73;100.00;102388.25;832005;23;1203;-53
2022/01/19 00:27:53;;;;;;;11.40;7.23;;;;;;;1.72;100.00;102394.19;835075;23;976;-57
2022/01/19 00:28:14;;;;;;;9.48;6.57;;;;;;;1.76;100.00;102383.25;836341;23;4312;-52
2022/01/19 00:28:35;;;;;;;9.07;7.03;;;;;;;1.80;100.00;102380.06;835540;23;823;-52
2022/01/19 00:28:57;;;;;;;8.53;6.90;;;;;;;1.73;100.00;102383.09;833601;23;730;-56
2022/01/19 00:29:18;;;;;;;8.52;6.98;;;;;;;1.72;100.00;102383.88;836591;23;987;-53
2022/01/19 00:29:38;;;;;;;9.23;7.13;;;;;;;1.69;100.00;102379.47;833741;23;761;-53
2022/01/19 00:29:59;;;;;;;9.52;6.80;;;;;;;1.73;100.00;102377.94;832644;23;879;-54
2022/01/19 00:30:19;;;;;;;9.73;7.30;;;;;;;1.81;100.00;102379.28;833657;23;904;-52
2022/01/19 00:30:40;;;;;;;8.50;6.80;;;;;;;1.76;100.00;102368.69;833752;23;755;-52
2022/01/19 00:31:01;;;;;;;8.88;6.70;;;;;;;1.75;100.00;102368.63;835409;23;898;-52
2022/01/19 00:31:22;;;;;;;9.15;6.70;;;;;;;1.75;100.00;102368.63;834304;23;4201;-52
2022/01/19 00:31:43;;;;;;;9.93;6.63;;;;;;;1.73;100.00;102370.19;837845;23;1543;-53
2022/01/19 00:32:04;;;;;;;8.83;6.70;;;;;;;1.64;100.00;102361.13;839144;23;1104;-54
2022/01/19 00:32:26;;;;;;;8.95;6.60;;;;;;;1.63;100.00;102361.91;839373;23;1124;-55
2022/01/19 00:32:46;;;;;;;8.05;6.30;;;;;;;1.61;100.00;102355.78;837454;23;906;-59
2022/01/19 00:33:08;;;;;;;8.30;6.30;;;;;;;1.67;100.00;102358.72;836456;23;1245;-52
2022/01/19 00:33:28;;;;;;;9.60;6.53;;;;;;;1.63;100.00;102356.75;835089;23;1211;-52
2022/01/19 00:33:48;;;;;;;9.27;6.63;;;;;;;1.66;100.00;102356.97;834593;23;1002;-54
2022/01/19 00:34:09;;;;;;;9.07;6.85;;;;;;;1.67;100.00;102357.84;835320;23;4188;-52
2022/01/19 00:34:29;;;;;;;9.93;7.00;;;;;;;1.65;100.00;102355.16;835433;23;792;-53
2022/01/19 00:34:49;;;;;;;9.45;6.93;;;;;;;1.70;100.00;102353.75;836129;23;748;-55
2022/01/19 00:35:11;;;;;;;8.50;6.50;;;;;;;1.69;100.00;102349.41;834881;23;1249;-53
2022/01/19 00:35:35;;;;;;;8.57;6.70;;;;;;;1.69;100.00;102351.97;836070;23;978;-52
2022/01/19 00:35:55;;;;;;;8.90;6.53;;;;;;;1.70;100.00;102352.84;831242;23;1169;-52
2022/01/19 00:36:15;;;;;;;11.00;7.00;;;;;;;1.69;100.00;102349.41;833451;23;893;-52
2022/01/19 00:36:36;;;;;;;9.90;7.00;;;;;;;1.63;100.00;102349.03;835708;23;1034;-53
2022/01/19 00:36:56;;;;;;;9.18;6.75;;;;;;;1.65;100.00;102351.72;835707;23;884;-54
2022/01/19 00:37:17;;;;;;;8.97;7.20;;;;;;;1.63;100.00;102345.56;834698;23;4297;-52
2022/01/19 00:37:40;;;;;;;9.60;7.25;;;;;;;1.69;100.00;102351.97;839887;23;892;-52
2022/01/19 00:38:02;;;;;;;9.55;7.22;;;;;;;1.68;100.00;102344.16;839875;23;2019;-52
2022/01/19 00:38:23;;;;;;;9.13;6.75;;;;;;;1.64;100.00;102350.81;838457;23;839;-52
2022/01/19 00:38:44;;;;;;;9.63;6.60;;;;;;;1.65;100.00;102352.59;841421;23;811;-52
2022/01/19 00:39:05;;;;;;;9.05;6.60;;;;;;;1.70;100.00;102358.91;840590;23;900;-55
2022/01/19 00:39:30;;;;;;;9.07;6.70;;;;;;;1.64;100.00;102348.22;835655;23;1109;-55
2022/01/19 00:39:51;;;;;;;8.95;6.63;;;;;;;1.62;100.00;102351.50;837278;23;745;-56
2022/01/19 00:40:14;;;;;;;10.07;6.97;;;;;;;1.60;100.00;102348.84;835138;23;4316;-58
2022/01/19 00:40:36;;;;;;;11.10;6.63;;;;;;;1.61;100.00;102354.91;835886;23;832;-52
2022/01/19 00:40:57;;;;;;;9.80;6.78;;;;;;;1.57;100.00;102348.66;836848;23;816;-55
2022/01/19 00:41:18;;;;;;;10.75;7.10;;;;;;;1.59;100.00;102353.91;835869;23;888;-52
2022/01/19 00:41:38;;;;;;;10.25;7.10;;;;;;;1.58;100.00;102347.88;836720;23;792;-51
2022/01/19 00:41:59;;;;;;;9.90;6.83;;;;;;;1.63;100.00;102351.59;836507;23;813;-54
2022/01/19 00:42:20;;;;;;;8.82;6.93;;;;;;;1.64;100.00;102352.50;831879;23;821;-52
2022/01/19 00:42:44;;;;;;;9.50;7.15;;;;;;;1.60;100.00;102354.00;832077;23;765;-53
2022/01/19 00:43:06;;;;;;;9.55;7.07;;;;;;;1.58;100.00;102347.88;831072;23;4236;-53
2022/01/19 00:43:27;;;;;;;10.20;7.25;;;;;;;1.62;100.00;102352.41;830909;23;793;-52
2022/01/19 00:43:47;;;;;;;10.23;7.20;;;;;;;1.63;100.00;102350.72;830933;23;878;-52
2022/01/19 00:44:08;;;;;;;10.55;7.20;;;;;;;1.61;100.00;102353.22;830603;23;896;-53
2022/01/19 00:44:28;;;;;;;10.27;6.90;;;;;;;1.61;100.00;102360.06;829998;23;757;-53
2022/01/19 00:44:48;;;;;;;9.18;6.57;;;;;;;1.61;100.00;102354.91;833786;23;1023;-53
2022/01/19 00:45:10;;;;;;;9.37;6.70;;;;;;;1.62;100.00;102354.09;833522;23;993;-52
2022/01/19 00:45:30;;;;;;;10.57;7.22;;;;;;;1.64;100.00;102355.09;826518;23;1924;-52
2022/01/19 00:45:51;;;;;;;10.57;6.97;;;;;;;1.66;100.00;102356.97;828462;23;783;-51
2022/01/19 00:46:11;;;;;;;10.43;7.38;;;;;;;1.65;100.00;102360.31;832621;23;4407;-52
2022/01/19 00:46:32;;;;;;;10.40;7.50;;;;;;;1.65;100.00;102359.44;832743;23;778;-56
2022/01/19 00:46:52;;;;;;;9.80;6.80;;;;;;;1.62;100.00;102351.50;833055;23;1053;-51
2022/01/19 00:47:14;;;;;;;9.80;7.00;;;;;;;1.60;100.00;102356.56;836096;23;1688;-52
2022/01/19 00:47:34;;;;;;;10.38;7.20;;;;;;;1.57;100.00;102358.97;841073;23;915;-51
2022/01/19 00:47:55;;;;;;;11.87;7.27;;;;;;;1.59;100.00;102349.63;841181;23;709;-54
2022/01/19 00:48:15;;;;;;;11.67;7.37;;;;;;;1.57;100.00;102350.38;841132;23;911;-53
2022/01/19 00:48:36;;;;;;;11.80;7.63;;;;;;;1.56;100.00;102353.75;840340;23;730;-53
2022/01/19 00:48:57;;;;;;;10.65;7.00;;;;;;;1.56;100.00;102346.88;835728;23;1340;-55
2022/01/19 00:49:18;;;;;;;9.63;6.73;;;;;;;1.57;100.00;102353.81;831350;23;4246;-52
2022/01/19 00:49:39;;;;;;;9.60;7.57;;;;;;;1.57;100.00;102351.25;830434;23;1247;-52
2022/01/19 00:50:00;;;;;;;9.07;7.25;;;;;;;1.60;100.00;102356.56;836200;23;840;-51
2022/01/19 00:50:23;;;;;;;9.40;7.20;;;;;;;1.63;100.00;102355.88;836727;23;701;-53
2022/01/19 00:50:44;;;;;;;9.77;7.50;;;;;;;1.61;100.00;102353.22;834083;23;1225;-54
2022/01/19 00:51:04;;;;;;;9.90;7.38;;;;;;;1.63;100.00;102351.59;833204;23;886;-52
2022/01/19 00:51:24;;;;;;;9.40;7.40;;;;;;;1.62;100.00;102355.00;826930;23;1307;-52
2022/01/19 00:51:45;;;;;;;10.52;7.38;;;;;;;1.61;100.00;102350.63;831179;23;1024;-55
2022/01/19 00:52:05;;;;;;;11.27;7.30;;;;;;;1.63;100.00;102353.28;829005;23;4280;-53
2022/01/19 00:52:26;;;;;;;10.20;7.40;;;;;;;1.62;100.00;102352.41;829059;23;785;-52
2022/01/19 00:52:47;;;;;;;9.30;7.43;;;;;;;1.63;100.00;102354.19;827100;23;929;-51
2022/01/19 00:53:07;;;;;;;9.60;7.33;;;;;;;1.63;100.00;102350.72;832298;23;1251;-52
2022/01/19 00:53:27;;;;;;;9.75;7.38;;;;;;;1.64;100.00;102353.38;837470;23;729;-53
2022/01/19 00:53:48;;;;;;;9.80;7.50;;;;;;;1.69;100.00;102346.81;836763;23;769;-51
2022/01/19 00:54:08;;;;;;;10.10;7.50;;;;;;;1.68;100.00;102354.47;831377;23;1527;-52
2022/01/19 00:54:28;;;;;;;10.30;7.67;;;;;;;1.68;100.00;102349.31;827889;23;1350;-54
2022/01/19 00:54:49;;;;;;;10.80;7.50;;;;;;;1.70;100.00;102343.44;827340;23;782;-52
2022/01/19 00:55:12;;;;;;;10.25;7.40;;;;;;;1.69;100.00;102344.25;822301;23;4283;-52
2022/01/19 00:55:32;;;;;;;10.90;7.47;;;;;;;1.68;100.00;102342.44;824673;23;853;-51
2022/01/19 00:55:53;;;;;;;10.00;7.60;;;;;;;1.71;100.00;102344.31;823591;23;781;-52
2022/01/19 00:56:13;;;;;;;9.80;7.65;;;;;;;1.75;100.00;102345.41;823977;23;1366;-52
2022/01/19 00:56:34;;;;;;;9.38;7.03;;;;;;;1.75;100.00;102337.66;832433;23;813;-53
2022/01/19 00:56:55;;;;;;;9.40;7.28;;;;;;;1.73;100.00;102344.41;835625;23;1388;-54
2022/01/19 00:57:15;;;;;;;10.17;7.30;;;;;;;1.72;100.00;102333.22;837705;23;840;-52
2022/01/19 00:57:39;;;;;;;10.05;7.28;;;;;;;1.71;100.00;102339.16;831133;23;1255;-52
2022/01/19 00:58:00;;;;;;;9.57;7.05;;;;;;;1.73;100.00;102334.09;831186;23;1902;-51
2022/01/19 00:58:20;;;;;;;10.10;7.20;;;;;;;1.71;100.00;102328.84;830134;23;4356;-55
2022/01/19 00:58:41;;;;;;;10.05;7.32;;;;;;;1.74;100.00;102333.31;826990;23;1184;-51
2022/01/19 00:59:01;;;;;;;9.88;7.32;;;;;;;1.78;100.00;102332.69;823304;23;1282;-54
2022/01/19 00:59:22;;;;;;;9.67;7.60;;;;;;;1.77;100.00;102326.63;833279;23;901;-56
2022/01/19 00:59:42;;;;;;;10.57;7.38;;;;;;;1.77;100.00;102329.19;837063;23;828;-52
2022/01/19 01:00:10;;;;;;;11.47;7.17;;;;;;;1.78;100.00;102327.53;839168;23;786;-55
2022/01/19 01:00:32;;;;;;;10.15;6.85;;;;;;;1.77;100.00;102324.03;841902;23;839;-53
2022/01/19 01:00:52;;;;;;;10.82;7.30;;;;;;;1.79;100.00;102325.03;839907;23;789;-52
2022/01/19 01:01:12;;;;;;;10.87;7.47;;;;;;;1.79;100.00;102325.03;836344;23;4280;-53
2022/01/19 01:01:33;;;;;;;10.65;7.63;;;;;;;1.81;100.00;102328.56;835140;23;954;-55
2022/01/19 01:01:53;;;;;;;10.50;7.60;;;;;;;1.81;100.00;102325.13;835056;23;935;-53
2022/01/19 01:02:14;;;;;;;9.93;7.30;;;;;;;1.82;100.00;102326.91;831380;23;809;-52
2022/01/19 01:02:34;;;;;;;10.35;7.10;;;;;;;1.87;100.00;102331.53;836379;23;923;-52
2022/01/19 01:02:55;;;;;;;11.07;7.20;;;;;;;1.90;100.00;102324.75;835007;23;1153;-55
2022/01/19 01:03:16;;;;;;;10.82;7.30;;;;;;;1.91;100.00;102327.44;831573;23;1625;-53
2022/01/19 01:03:36;;;;;;;9.60;7.07;;;;;;;1.90;100.00;102328.22;831793;23;958;-52
2022/01/19 01:03:57;;;;;;;9.95;7.57;;;;;;;1.90;100.00;102328.22;832524;23;903;-52
2022/01/19 01:04:17;;;;;;;9.88;7.47;;;;;;;1.89;100.00;102328.16;830812;23;4772;-52
2022/01/19 01:04:38;;;;;;;10.50;7.33;;;;;;;1.87;100.00;102326.38;829044;23;758;-55
2022/01/19 01:04:58;;;;;;;9.85;7.05;;;;;;;1.86;100.00;102319.41;832551;23;848;-52
2022/01/19 01:05:19;;;;;;;9.00;7.03;;;;;;;1.87;100.00;102322.91;837267;23;821;-52
2022/01/19 01:05:40;;;;;;;10.10;7.28;;;;;;;1.96;100.00;102322.53;836320;23;960;-53
2022/01/19 01:06:00;;;;;;;9.48;7.25;;;;;;;1.98;100.00;102316.66;837759;23;895;-52
2022/01/19 01:06:21;;;;;;;9.50;7.00;;;;;;;2.01;100.00;102314.25;836772;23;867;-53
2022/01/19 01:06:41;;;;;;;10.17;7.13;;;;;;;1.96;100.00;102313.09;836625;23;808;-52
2022/01/19 01:07:02;;;;;;;11.20;7.10;;;;;;;1.97;100.00;102325.19;831275;23;836;-52
2022/01/19 01:07:22;;;;;;;9.30;6.70;;;;;;;1.99;100.00;102310.69;829926;23;4220;-51
2022/01/19 01:07:43;;;;;;;9.70;6.87;;;;;;;1.98;100.00;102315.75;829100;23;829;-52
2022/01/19 01:08:03;;;;;;;9.88;6.93;;;;;;;1.97;100.00;102317.47;831888;23;867;-54
2022/01/19 01:08:24;;;;;;;11.10;7.20;;;;;;;1.97;100.00;102311.44;830603;23;750;-58
2022/01/19 01:08:44;;;;;;;11.45;7.60;;;;;;;1.94;100.00;102322.44;827801;23;1559;-54
2022/01/19 01:09:05;;;;;;;8.87;6.90;;;;;;;1.92;100.00;102324.03;831993;23;1265;-55
2022/01/19 01:09:27;;;;;;;8.73;6.93;;;;;;;1.92;100.00;102323.16;830916;23;1384;-52
2022/01/19 01:09:47;;;;;;;10.70;7.15;;;;;;;1.93;100.00;102324.94;836148;23;975;-53
2022/01/19 01:10:11;;;;;;;10.17;7.17;;;;;;;1.86;100.00;102321.13;830054;23;4312;-51
2022/01/19 01:10:40;;;;;;;9.52;7.18;;;;;;;1.84;100.00;102320.13;827694;23;1489;-52
2022/01/19 01:11:00;;;;;;;9.80;7.40;;;;;;;1.89;100.00;102323.00;830528;23;944;-52
2022/01/19 01:11:28;;;;;;;9.60;7.10;;;;;;;1.88;100.00;102316.94;828873;23;900;-55
2022/01/19 01:12:28;;;;;;;9.32;7.07;;;;;;;1.89;100.00;102323.88;833759;23;892;-53
2022/01/19 01:12:51;;;;;;;9.63;7.13;;;;;;;1.85;100.00;102321.91;836709;23;973;-57
2022/01/19 01:13:23;;;;;;;9.02;6.85;;;;;;;1.85;100.00;102322.78;835783;23;4398;-54
2022/01/19 01:15:30;;;;;;;9.98;7.20;;;;;;;2.03;100.00;102325.53;838090;23;785;-51
2022/01/19 01:16:04;;;;;;;9.77;6.93;;;;;;;1.97;100.00;102332.06;831678;23;978;-51
2022/01/19 01:16:36;;;;;;;9.77;7.20;;;;;;;1.91;100.00;102329.09;831149;23;4899;-52
2022/01/19 01:17:12;;;;;;;9.48;7.10;;;;;;;1.90;100.00;102330.81;833140;23;924;-51
2022/01/19 01:18:19;;;;;;;9.20;7.35;;;;;;;1.88;100.00;102329.81;831095;23;1399;-51
2022/01/19 01:18:41;;;;;;;9.27;7.40;;;;;;;1.87;100.00;102336.69;826762;23;1238;-55
2022/01/19 01:19:04;;;;;;;10.30;7.50;;;;;;;1.86;100.00;102332.31;827641;23;975;-52
2022/01/19 01:19:26;;;;;;;9.95;7.60;;;;;;;1.87;100.00;102330.66;830767;23;4872;-51
2022/01/19 01:19:46;;;;;;;9.52;7.55;;;;;;;1.80;100.00;102339.72;827784;23;1567;-52
2022/01/19 01:20:09;;;;;;;11.63;8.00;;;;;;;1.78;100.00;102330.09;830220;23;773;-52
2022/01/19 01:20:36;;;;;;;9.80;7.28;;;;;;;1.70;100.00;102325.41;830923;23;2040;-54
2022/01/19 01:20:59;;;;;;;9.50;7.18;;;;;;;1.66;100.00;102330.25;830611;23;1203;-52
2022/01/19 01:21:19;;;;;;;10.18;7.53;;;;;;;1.65;100.00;102334.53;830729;23;916;-54
2022/01/19 01:21:40;;;;;;;11.13;7.47;;;;;;;1.62;100.00;102333.47;833656;23;1449;-53
2022/01/19 01:22:00;;;;;;;10.10;7.37;;;;;;;1.61;100.00;102326.56;832794;23;1200;-52
2022/01/19 01:22:20;;;;;;;9.37;7.10;;;;;;;1.57;100.00;102328.06;832671;23;4346;-53
2022/01/19 01:22:42;;;;;;;10.07;7.47;;;;;;;1.56;100.00;102333.13;835161;23;825;-52
2022/01/19 01:23:03;;;;;;;9.18;7.40;;;;;;;1.55;100.00;102327.06;835735;23;848;-52
2022/01/19 01:23:26;;;;;;;9.57;7.32;;;;;;;1.56;100.00;102331.41;833868;23;844;-53
2022/01/19 01:23:49;;;;;;;10.32;7.38;;;;;;;1.59;100.00;102329.00;835042;23;1219;-56
2022/01/19 01:24:10;;;;;;;9.32;7.38;;;;;;;1.61;100.00;102337.75;834596;23;1590;-53
2022/01/19 01:24:30;;;;;;;9.75;7.57;;;;;;;1.65;100.00;102325.94;830530;23;1316;-52
2022/01/19 01:24:51;;;;;;;9.45;7.25;;;;;;;1.64;100.00;102337.91;831839;23;785;-62
2022/01/19 01:25:12;;;;;;;9.53;7.33;;;;;;;1.61;100.00;102337.75;834095;23;4267;-52
2022/01/19 01:25:32;;;;;;;9.67;7.40;;;;;;;1.62;100.00;102339.53;836512;23;921;-54
2022/01/19 01:25:53;;;;;;;9.68;7.70;;;;;;;1.63;100.00;102338.72;836880;23;840;-54
2022/01/19 01:26:14;;;;;;;9.70;7.35;;;;;;;1.55;100.00;102339.06;836283;23;887;-52
2022/01/19 01:26:34;;;;;;;10.20;7.70;;;;;;;1.55;100.00;102339.94;834063;23;951;-52
2022/01/19 01:26:55;;;;;;;11.03;7.47;;;;;;;1.58;100.00;102340.16;833774;23;2688;-52
2022/01/19 01:27:15;;;;;;;9.68;7.03;;;;;;;1.61;100.00;102342.91;831217;23;1013;-54
2022/01/19 01:27:36;;;;;;;9.80;7.10;;;;;;;1.59;100.00;102344.47;832630;23;989;-51
2022/01/19 01:27:56;;;;;;;10.48;7.25;;;;;;;1.53;100.00;102344.13;831603;23;934;-52
2022/01/19 01:28:17;;;;;;;9.93;7.45;;;;;;;1.53;100.00;102344.13;827533;23;4462;-52
2022/01/19 01:28:38;;;;;;;9.73;7.32;;;;;;;1.48;100.00;102345.53;832052;23;1278;-53
2022/01/19 01:28:58;;;;;;;10.67;7.40;;;;;;;1.43;100.00;102341.81;835853;23;1143;-51
2022/01/19 01:29:19;;;;;;;9.93;7.50;;;;;;;1.43;100.00;102349.56;830701;23;1283;-54
2022/01/19 01:29:41;;;;;;;9.67;7.40;;;;;;;1.42;100.00;102350.34;832315;23;872;-52
2022/01/19 01:30:02;;;;;;;9.85;7.57;;;;;;;1.39;100.00;102345.00;832025;23;966;-55
2022/01/19 01:30:25;;;;;;;10.05;7.63;;;;;;;1.38;100.00;102344.09;831636;23;1674;-53
2022/01/19 01:30:47;;;;;;;10.18;7.28;;;;;;;1.40;100.00;102344.19;827672;23;853;-51
2022/01/19 01:31:09;;;;;;;11.80;7.43;;;;;;;1.40;100.00;102341.63;822951;23;4252;-51
2022/01/19 01:31:29;;;;;;;11.00;7.60;;;;;;;1.38;100.00;102336.38;830692;23;1256;-53
2022/01/19 01:31:50;;;;;;;10.20;7.50;;;;;;;1.41;100.00;102338.25;831514;23;1546;-52
2022/01/19 01:32:10;;;;;;;10.80;7.95;;;;;;;1.41;100.00;102338.25;833776;23;1339;-52
2022/01/19 01:32:31;;;;;;;10.57;8.17;;;;;;;1.42;100.00;102340.03;834647;23;1216;-52
2022/01/19 01:32:51;;;;;;;10.90;7.27;;;;;;;1.41;100.00;102333.97;835605;23;1299;-53
2022/01/19 01:33:12;;;;;;;10.73;7.70;;;;;;;1.35;100.00;102331.03;836120;23;880;-52
2022/01/19 01:33:33;;;;;;;12.13;7.82;;;;;;;1.35;100.00;102331.03;828555;23;807;-53
2022/01/19 01:33:54;;;;;;;8.90;7.20;;;;;;;1.34;100.00;102321.53;823852;23;1291;-53
2022/01/19 01:34:14;;;;;;;10.07;7.40;;;;;;;1.39;100.00;102322.69;823378;23;4473;-55
2022/01/19 01:34:35;;;;;;;10.07;7.57;;;;;;;1.38;100.00;102322.63;822651;23;1230;-54
2022/01/19 01:34:56;;;;;;;11.73;7.63;;;;;;;1.35;100.00;102323.31;832219;23;1180;-53
2022/01/19 01:35:16;;;;;;;11.82;7.35;;;;;;;1.32;100.00;102321.44;830764;23;1199;-53
2022/01/19 01:35:37;;;;;;;10.87;7.07;;;;;;;1.29;100.00;102318.69;832018;23;1133;-52
2022/01/19 01:35:58;;;;;;;10.38;7.00;;;;;;;1.26;100.00;102318.50;836441;23;896;-52
2022/01/19 01:36:19;;;;;;;11.02;7.28;;;;;;;1.26;100.00;102312.44;836276;23;1245;-52
2022/01/19 01:36:39;;;;;;;11.10;7.45;;;;;;;1.26;100.00;102320.19;834265;23;843;-55
2022/01/19 01:37:00;;;;;;;9.73;7.30;;;;;;;1.21;100.00;102314.75;829956;23;1586;-55
2022/01/19 01:37:20;;;;;;;11.73;7.37;;;;;;;1.16;100.00;102322.22;827158;23;4190;-51
2022/01/19 01:37:41;;;;;;;12.02;7.82;;;;;;;1.16;100.00;102316.16;823322;23;1564;-54
2022/01/19 01:38:03;;;;;;;10.27;7.45;;;;;;;1.18;100.00;102312.00;826836;23;1897;-55
2022/01/19 01:38:24;;;;;;;9.77;7.47;;;;;;;1.16;100.00;102314.50;828800;23;812;-52
2022/01/19 01:38:45;;;;;;;11.13;7.80;;;;;;;1.12;100.00;102309.03;827432;23;1240;-53
2022/01/19 01:39:06;;;;;;;9.52;7.03;;;;;;;1.10;100.00;102313.22;831630;23;1286;-55
2022/01/19 01:39:26;;;;;;;10.07;7.53;;;;;;;1.09;100.00;102312.31;827098;23;1268;-52
2022/01/19 01:39:47;;;;;;;9.05;7.13;;;;;;;1.17;100.00;102315.38;826901;23;1239;-54
2022/01/19 01:40:12;;;;;;;10.80;7.53;;;;;;;1.17;100.00;102307.66;823277;23;4330;-53
2022/01/19 01:40:34;;;;;;;10.60;7.15;;;;;;;1.13;100.00;102305.69;824876;23;1148;-54
2022/01/19 01:40:55;;;;;;;10.48;7.18;;;;;;;1.14;100.00;102304.91;830909;23;852;-53
2022/01/19 01:41:16;;;;;;;10.70;7.63;;;;;;;1.18;100.00;102312.00;828044;23;1160;-52
2022/01/19 01:41:40;;;;;;;10.85;7.50;;;;;;;1.16;100.00;102306.78;827114;23;1583;-52
2022/01/19 01:42:16;;;;;;;9.07;6.80;;;;;;;1.18;100.00;102306.84;829539;23;1665;-52
2022/01/19 01:42:37;;;;;;;9.77;7.53;;;;;;;1.25;100.00;102314.16;827920;23;1340;-54
2022/01/19 01:42:59;;;;;;;10.18;7.88;;;;;;;1.29;100.00;102310.09;832537;23;1216;-53
2022/01/19 01:43:21;;;;;;;10.45;8.00;;;;;;;1.26;100.00;102310.78;834474;23;4422;-52
2022/01/19 01:43:43;;;;;;;10.82;7.50;;;;;;;1.24;100.00;102314.94;833932;23;871;-53
2022/01/19 01:44:04;;;;;;;10.63;7.28;;;;;;;1.25;100.00;102316.72;828312;23;1500;-52
2022/01/19 01:44:24;;;;;;;10.70;7.50;;;;;;;1.29;100.00;102316.09;831284;23;1284;-51
2022/01/19 01:44:48;;;;;;;10.57;7.72;;;;;;;1.32;100.00;102318.88;832206;23;933;-53